Nordic Philip — 5BZH2 — position and weather

sailwx.info

Track history (hours):
 
Tides and Currents Weather Stations Pressure Air Temp Water Temp Dewpoint Dewpoint Depression Visibility Wind Speed Wind Dir Waves Ship Positions

Nordic Philip

Last reported at 2017-Sep-24 02:50 UTC. Time now 2017-Sep-24 03:20 UTC.
Position N 60°29' E 019°02'.

Length 152 m; draft 6.2 m.

Type: Ship (hazmat cat A). MMSI: 212018000.

Date/timePositionNaut miles runAvg speedWind from/ knotsBaromVisibWave heightAir tempDewpointWater temp
2017-Sep-24 02:50N 60°29' E 019°02'310.4
2017-Sep-24 02:30N 60°25' E 019°02'510.3
2017-Sep-24 02:00N 60°20' E 019°01'510.2
2017-Sep-24 01:29N 60°15' E 019°03'510.5
2017-Sep-24 01:00N 60°10' E 019°08'510.8
2017-Sep-24 00:30N 60°06' E 019°14'510.8
2017-Sep-24 00:00N 60°02' E 019°21'810.8
2017-Sep-23 23:14N 59°55' E 019°32'210.7
2017-Sep-23 23:01N 59°53' E 019°34'510.6
2017-Sep-23 22:30N 59°49' E 019°41'408 9.2
2017-Sep-22 02:00N 54°25' E 012°07'510.0
2017-Sep-22 01:30N 54°24' E 011°59'510.0
2017-Sep-22 01:00N 54°24' E 011°50'5 9.8
2017-Sep-22 00:31N 54°26' E 011°42'510.3
2017-Sep-22 00:01N 54°28' E 011°34'510.1
2017-Sep-21 23:31N 54°30' E 011°26'5 9.9
2017-Sep-21 23:01N 54°33' E 011°19'5 9.4
2017-Sep-21 22:30N 54°35' E 011°11'5 9.4
2017-Sep-21 22:01N 54°35' E 011°03'5 9.8
2017-Sep-21 21:31N 54°34' E 010°55'510.2
2017-Sep-21 21:00N 54°34' E 010°46'510.5
2017-Sep-21 20:31N 54°34' E 010°37'510.6
2017-Sep-21 20:00N 54°32' E 010°29'510.6
2017-Sep-21 19:31N 54°30' E 010°20'17 5.7
2017-Sep-21 16:32N 54°21' E 009°56'0 8.1
2017-Sep-21 16:29N 54°21' E 009°55'2 3.6
2017-Sep-21 15:56N 54°22' E 009°52'3 7.6
2017-Sep-21 15:31N 54°21' E 009°46'2 4.0
2017-Sep-21 15:00N 54°20' E 009°44'3 6.5
2017-Sep-21 14:31N 54°17' E 009°40'3 5.5
2017-Sep-21 14:00N 54°15' E 009°37'4 7.7
2017-Sep-21 13:31N 54°12' E 009°34'4 8.4
2017-Sep-21 13:00N 54°10' E 009°27'3 6.7
2017-Sep-21 12:31N 54°09' E 009°22'2 3.5
2017-Sep-21 12:01N 54°08' E 009°20'4 8.4
2017-Sep-21 11:30N 54°04' E 009°19'4 8.5
2017-Sep-21 11:00N 53°59' E 009°17'4 8.2
2017-Sep-21 10:31N 53°56' E 009°13'4 7.2
2017-Sep-21 10:01N 53°54' E 009°09'0 0.1
2017-Sep-21 09:30N 53°54' E 009°09'1 2.5
2017-Sep-21 09:01N 53°53' E 009°07'1 1.2
2017-Sep-21 08:30N 53°53' E 009°06'4 7.5
2017-Sep-21 08:00N 53°51' E 009°00'612.0
2017-Sep-21 07:30N 53°50' E 008°50'510.9
2017-Sep-21 07:00N 53°53' E 008°42'612.0
2017-Sep-21 06:30N 53°58' E 008°36'612.2
2017-Sep-21 06:00N 53°59' E 008°25'713.0
2017-Sep-21 05:30N 53°60' E 008°14'714.3
2017-Sep-21 05:00N 53°58' E 008°03'714.8
2017-Sep-21 04:30N 53°52' E 007°55'714.2
2017-Sep-21 04:01N 53°49' E 008°06'816.9
2017-Sep-21 03:30N 53°44' E 008°16'816.8
2017-Sep-21 03:00N 53°38' E 008°27'4 7.7
2017-Sep-21 02:28N 53°35' E 008°32'0 0.0
2017-Sep-21 01:58N 53°35' E 008°32'0 0.0
2017-Sep-21 01:28N 53°35' E 008°32'0 0.0
2017-Sep-21 00:58N 53°35' E 008°32'0 0.0
2017-Sep-21 00:28N 53°35' E 008°32'0 0.0
2017-Sep-20 23:58N 53°35' E 008°32'0 0.0
2017-Sep-20 23:28N 53°35' E 008°32'0 0.0
2017-Sep-20 22:59N 53°35' E 008°32'0 0.0
2017-Sep-20 22:30N 53°35' E 008°32'0 0.0
2017-Sep-20 21:59N 53°35' E 008°32'0 0.0
2017-Sep-20 21:29N 53°35' E 008°32'0 0.0
2017-Sep-20 20:59N 53°35' E 008°32'0 0.0
2017-Sep-20 20:29N 53°35' E 008°32'0 0.0
2017-Sep-20 19:59N 53°35' E 008°32'0 0.0
2017-Sep-20 19:28N 53°35' E 008°32'0 0.0
2017-Sep-20 18:58N 53°35' E 008°32'0 0.0
2017-Sep-20 18:30N 53°35' E 008°32'0 0.0
2017-Sep-20 18:00N 53°35' E 008°32'0 0.0
2017-Sep-20 17:30N 53°35' E 008°32'0 0.0
2017-Sep-20 17:00N 53°35' E 008°32'0 0.0
2017-Sep-20 16:29N 53°35' E 008°32'0 0.0
2017-Sep-20 15:59N 53°35' E 008°32'0 0.0
2017-Sep-20 15:29N 53°35' E 008°32'0 0.0
2017-Sep-20 14:59N 53°35' E 008°32'0 0.0
2017-Sep-20 13:59N 53°35' E 008°32'0 1.0
2017-Sep-20 13:31N 53°35' E 008°31'510.6
2017-Sep-20 13:00N 53°39' E 008°25'611.9
2017-Sep-20 12:30N 53°43' E 008°18'4 8.1
2017-Sep-20 12:00N 53°40' E 008°23'4 7.5
2017-Sep-20 11:30N 53°38' E 008°27'3 5.7
2017-Sep-20 11:00N 53°36' E 008°31'0 0.2
2017-Sep-20 10:30N 53°36' E 008°31'0 0.0
2017-Sep-20 10:00N 53°36' E 008°31'0 0.0
2017-Sep-20 09:30N 53°36' E 008°31'0 0.0
2017-Sep-20 09:00N 53°36' E 008°31'0 0.0
2017-Sep-20 08:30N 53°36' E 008°31'0 0.0
2017-Sep-20 08:00N 53°36' E 008°31'0 0.0
2017-Sep-20 07:30N 53°36' E 008°31'0 0.0
2017-Sep-20 07:00N 53°36' E 008°31'0 0.0
2017-Sep-20 06:30N 53°36' E 008°31'0 0.0
2017-Sep-20 06:00N 53°36' E 008°31'0 0.0
2017-Sep-20 05:30N 53°36' E 008°31'0 0.0
2017-Sep-20 04:59N 53°36' E 008°31'0 0.0
2017-Sep-20 04:29N 53°36' E 008°31'0 0.0
2017-Sep-20 03:59N 53°36' E 008°31'1 2.1
2017-Sep-20 03:30N 53°37' E 008°30'4 8.9
2017-Sep-20 03:00N 53°39' E 008°24'612.1
2017-Sep-20 02:30N 53°43' E 008°16'611.9
2017-Sep-20 02:00N 53°47' E 008°09'612.3
2017-Sep-20 01:30N 53°51' E 008°00'5 9.2
2017-Sep-20 01:00N 53°53' E 007°53'713.4
2017-Sep-20 00:30N 53°58' E 007°60'612.4
2017-Sep-20 00:00N 54°00' E 008°09'510.4
2017-Sep-19 23:30N 54°00' E 008°18'713.2
2017-Sep-19 23:00N 53°59' E 008°29'612.0
2017-Sep-19 22:30N 53°57' E 008°39'611.5
2017-Sep-19 22:00N 53°52' E 008°44'510.6
2017-Sep-19 21:30N 53°51' E 008°53'611.7
2017-Sep-19 21:00N 53°52' E 009°02'611.3
2017-Sep-19 20:30N 53°53' E 009°12'713.6
2017-Sep-19 20:01N 53°49' E 009°22'815.2
2017-Sep-19 19:31N 53°43' E 009°29'713.6
2017-Sep-19 19:01N 53°37' E 009°34'713.4
2017-Sep-19 18:30N 53°34' E 009°44'510.9
2017-Sep-19 18:00N 53°33' E 009°53'3 5.8
2017-Sep-19 17:29N 53°30' E 009°56'0 0.0
2017-Sep-19 16:59N 53°30' E 009°56'0 0.0
2017-Sep-19 16:26N 53°30' E 009°56'0 0.0
2017-Sep-19 15:59N 53°30' E 009°56'0 0.0
2017-Sep-19 15:29N 53°30' E 009°56'0 0.0
2017-Sep-19 14:59N 53°30' E 009°56'0 0.0
2017-Sep-19 14:26N 53°30' E 009°56'0 0.0
2017-Sep-19 13:59N 53°30' E 009°56'0 0.0
2017-Sep-19 13:29N 53°30' E 009°56'0 0.0
2017-Sep-19 12:59N 53°30' E 009°56'0 0.0
2017-Sep-19 12:29N 53°30' E 009°56'0 0.0
2017-Sep-19 11:59N 53°30' E 009°56'0 0.0
2017-Sep-19 11:29N 53°30' E 009°56'0 0.0
2017-Sep-19 10:59N 53°30' E 009°56'0 0.0
2017-Sep-19 10:29N 53°30' E 009°56'0 0.0
2017-Sep-19 09:59N 53°30' E 009°56'0 0.0
2017-Sep-19 09:29N 53°30' E 009°56'0 0.0
2017-Sep-19 08:59N 53°30' E 009°56'0 0.0
2017-Sep-19 08:29N 53°30' E 009°56'0 0.0
2017-Sep-19 07:59N 53°30' E 009°56'0 0.0
2017-Sep-19 07:29N 53°30' E 009°56'0 0.0
2017-Sep-19 06:59N 53°30' E 009°56'0 0.0
2017-Sep-19 06:29N 53°30' E 009°56'0 0.0
2017-Sep-19 05:59N 53°30' E 009°56'0 0.0
2017-Sep-19 05:29N 53°30' E 009°56'0 0.0
2017-Sep-19 04:59N 53°30' E 009°56'0 0.3
2017-Sep-19 04:30N 53°31' E 009°56'2 4.0
2017-Sep-19 04:00N 53°32' E 009°55'0 0.0
2017-Sep-19 03:27N 53°32' E 009°55'0 0.0
2017-Sep-19 03:00N 53°32' E 009°55'0 0.0
2017-Sep-19 02:30N 53°32' E 009°55'0 0.0
2017-Sep-19 02:00N 53°32' E 009°55'0 0.0
2017-Sep-19 01:30N 53°32' E 009°55'0 0.0
2017-Sep-19 01:00N 53°32' E 009°55'0 0.0
2017-Sep-19 00:30N 53°32' E 009°55'0 0.0
2017-Sep-19 00:00N 53°32' E 009°55'0 0.0
2017-Sep-18 23:30N 53°32' E 009°55'0 0.0
2017-Sep-18 23:00N 53°32' E 009°55'0 0.0
2017-Sep-18 22:30N 53°32' E 009°55'0 0.0
2017-Sep-18 22:00N 53°32' E 009°55'0 0.0
2017-Sep-18 21:30N 53°32' E 009°55'0 0.7
2017-Sep-18 21:00N 53°32' E 009°54'1 1.4
2017-Sep-18 20:31N 53°32' E 009°55'0 0.0
2017-Sep-18 20:01N 53°32' E 009°55'0 0.0
2017-Sep-18 19:31N 53°32' E 009°55'0 0.0
2017-Sep-18 19:01N 53°32' E 009°55'0 0.0
2017-Sep-18 18:31N 53°32' E 009°55'0 0.0
2017-Sep-18 18:01N 53°32' E 009°55'0 0.7
2017-Sep-18 17:31N 53°32' E 009°55'1 3.0
2017-Sep-18 17:01N 53°33' E 009°52'4 8.1
2017-Sep-18 16:31N 53°34' E 009°46'5 9.3
2017-Sep-18 16:00N 53°35' E 009°38'611.1
2017-Sep-18 15:30N 53°38' E 009°31'510.6
2017-Sep-18 15:00N 53°43' E 009°28'612.8
2017-Sep-18 14:30N 53°49' E 009°22'612.9
2017-Sep-18 14:01N 53°53' E 009°14'3 6.0
2017-Sep-18 13:30N 53°54' E 009°09'0 0.1
2017-Sep-18 13:00N 53°54' E 009°09'1 1.1
2017-Sep-18 12:30N 53°54' E 009°10'0 0.6
2017-Sep-18 12:01N 53°54' E 009°10'1 2.8
2017-Sep-18 11:30N 53°55' E 009°12'4 7.7
2017-Sep-18 11:00N 53°58' E 009°16'4 7.4
2017-Sep-18 10:31N 54°02' E 009°18'4 7.9
2017-Sep-18 10:01N 54°06' E 009°20'11 5.7
2017-Sep-18 08:08N 54°12' E 009°34'32 5.8
2017-Sep-18 02:35N 54°30' E 010°20'114.1
2017-Sep-18 02:30N 54°31' E 010°21'714.1
2017-Sep-18 02:00N 54°34' E 010°33'714.0
2017-Sep-18 01:31N 54°35' E 010°44'714.4
2017-Sep-18 01:01N 54°36' E 010°57'714.8
2017-Sep-18 00:31N 54°36' E 011°09'815.5
2017-Sep-18 00:01N 54°33' E 011°22'714.7
2017-Sep-17 23:31N 54°30' E 011°33'714.4
2017-Sep-17 23:01N 54°27' E 011°45'714.4
2017-Sep-17 22:31N 54°26' E 011°57'714.4
2017-Sep-17 21:59N 54°27' E 012°10'715.1
2017-Sep-17 21:30N 54°34' E 012°14'1114.7
2017-Sep-17 20:45N 54°41' E 012°30'414.9
2017-Sep-17 20:30N 54°43' E 012°35'814.7
2017-Sep-17 19:59N 54°47' E 012°46'1214.8
2017-Sep-17 19:10N 54°51' E 013°05'414.8
2017-Sep-17 18:56N 54°53' E 013°11'614.8
2017-Sep-17 18:30N 54°55' E 013°21'1914.9
2017-Sep-17 17:14N 55°02' E 013°52'714.9
2017-Sep-17 16:46N 55°05' E 014°03'415.2
2017-Sep-17 16:30N 55°08' E 014°08'1315.4
2017-Sep-17 15:40N 55°18' E 014°21'316.7
2017-Sep-17 15:31N 55°20' E 014°24'816.7
2017-Sep-17 15:01N 55°26' E 014°35'817.0
2017-Sep-17 14:31N 55°31' E 014°47'917.0
2017-Sep-17 14:00N 55°35' E 015°00'817.0
2017-Sep-17 13:31N 55°39' E 015°13'816.9
2017-Sep-17 13:00N 55°43' E 015°27'816.7
2017-Sep-17 12:30N 55°48' E 015°39'816.9
2017-Sep-17 12:01N 55°52' E 015°52'816.9
2017-Sep-17 11:31N 55°56' E 016°05'816.9
2017-Sep-17 11:01N 56°01' E 016°18'816.7
2017-Sep-17 10:31N 56°05' E 016°31'917.0
2017-Sep-17 10:01N 56°10' E 016°44'816.6
2017-Sep-17 09:31N 56°17' E 016°50'  
Track history (hours):
 
Tides and Currents Weather Stations Pressure Air Temp Water Temp Dewpoint Dewpoint Depression Visibility Wind Speed Wind Dir Waves Ship Positions

Nordic Philip

Last reported at 2017-Sep-24 02:50 UTC. Time now 2017-Sep-24 03:20 UTC.
Position N 60°29' E 019°02'.

Length 152 m; draft 6.2 m.

Type: Ship (hazmat cat A). MMSI: 212018000.

Date/timePositionNaut miles runAvg speedWind from/ knotsBaromVisibWave heightAir tempDewpointWater temp
2017-Sep-24 02:50N 60°29' E 019°02'310.4
2017-Sep-24 02:30N 60°25' E 019°02'510.3
2017-Sep-24 02:00N 60°20' E 019°01'510.2
2017-Sep-24 01:29N 60°15' E 019°03'510.5
2017-Sep-24 01:00N 60°10' E 019°08'510.8
2017-Sep-24 00:30N 60°06' E 019°14'510.8
2017-Sep-24 00:00N 60°02' E 019°21'810.8
2017-Sep-23 23:14N 59°55' E 019°32'210.7
2017-Sep-23 23:01N 59°53' E 019°34'510.6
2017-Sep-23 22:30N 59°49' E 019°41'408 9.2
2017-Sep-22 02:00N 54°25' E 012°07'510.0
2017-Sep-22 01:30N 54°24' E 011°59'510.0
2017-Sep-22 01:00N 54°24' E 011°50'5 9.8
2017-Sep-22 00:31N 54°26' E 011°42'510.3
2017-Sep-22 00:01N 54°28' E 011°34'510.1
2017-Sep-21 23:31N 54°30' E 011°26'5 9.9
2017-Sep-21 23:01N 54°33' E 011°19'5 9.4
2017-Sep-21 22:30N 54°35' E 011°11'5 9.4
2017-Sep-21 22:01N 54°35' E 011°03'5 9.8
2017-Sep-21 21:31N 54°34' E 010°55'510.2
2017-Sep-21 21:00N 54°34' E 010°46'510.5
2017-Sep-21 20:31N 54°34' E 010°37'510.6
2017-Sep-21 20:00N 54°32' E 010°29'510.6
2017-Sep-21 19:31N 54°30' E 010°20'17 5.7
2017-Sep-21 16:32N 54°21' E 009°56'0 8.1
2017-Sep-21 16:29N 54°21' E 009°55'2 3.6
2017-Sep-21 15:56N 54°22' E 009°52'3 7.6
2017-Sep-21 15:31N 54°21' E 009°46'2 4.0
2017-Sep-21 15:00N 54°20' E 009°44'3 6.5
2017-Sep-21 14:31N 54°17' E 009°40'3 5.5
2017-Sep-21 14:00N 54°15' E 009°37'4 7.7
2017-Sep-21 13:31N 54°12' E 009°34'4 8.4
2017-Sep-21 13:00N 54°10' E 009°27'3 6.7
2017-Sep-21 12:31N 54°09' E 009°22'2 3.5
2017-Sep-21 12:01N 54°08' E 009°20'4 8.4
2017-Sep-21 11:30N 54°04' E 009°19'4 8.5
2017-Sep-21 11:00N 53°59' E 009°17'4 8.2
2017-Sep-21 10:31N 53°56' E 009°13'4 7.2
2017-Sep-21 10:01N 53°54' E 009°09'0 0.1
2017-Sep-21 09:30N 53°54' E 009°09'1 2.5
2017-Sep-21 09:01N 53°53' E 009°07'1 1.2
2017-Sep-21 08:30N 53°53' E 009°06'4 7.5
2017-Sep-21 08:00N 53°51' E 009°00'612.0
2017-Sep-21 07:30N 53°50' E 008°50'510.9
2017-Sep-21 07:00N 53°53' E 008°42'612.0
2017-Sep-21 06:30N 53°58' E 008°36'612.2
2017-Sep-21 06:00N 53°59' E 008°25'713.0
2017-Sep-21 05:30N 53°60' E 008°14'714.3
2017-Sep-21 05:00N 53°58' E 008°03'714.8
2017-Sep-21 04:30N 53°52' E 007°55'714.2
2017-Sep-21 04:01N 53°49' E 008°06'816.9
2017-Sep-21 03:30N 53°44' E 008°16'816.8
2017-Sep-21 03:00N 53°38' E 008°27'4 7.7
2017-Sep-21 02:28N 53°35' E 008°32'0 0.0
2017-Sep-21 01:58N 53°35' E 008°32'0 0.0
2017-Sep-21 01:28N 53°35' E 008°32'0 0.0
2017-Sep-21 00:58N 53°35' E 008°32'0 0.0
2017-Sep-21 00:28N 53°35' E 008°32'0 0.0
2017-Sep-20 23:58N 53°35' E 008°32'0 0.0
2017-Sep-20 23:28N 53°35' E 008°32'0 0.0
2017-Sep-20 22:59N 53°35' E 008°32'0 0.0
2017-Sep-20 22:30N 53°35' E 008°32'0 0.0
2017-Sep-20 21:59N 53°35' E 008°32'0 0.0
2017-Sep-20 21:29N 53°35' E 008°32'0 0.0
2017-Sep-20 20:59N 53°35' E 008°32'0 0.0
2017-Sep-20 20:29N 53°35' E 008°32'0 0.0
2017-Sep-20 19:59N 53°35' E 008°32'0 0.0
2017-Sep-20 19:28N 53°35' E 008°32'0 0.0
2017-Sep-20 18:58N 53°35' E 008°32'0 0.0
2017-Sep-20 18:30N 53°35' E 008°32'0 0.0
2017-Sep-20 18:00N 53°35' E 008°32'0 0.0
2017-Sep-20 17:30N 53°35' E 008°32'0 0.0
2017-Sep-20 17:00N 53°35' E 008°32'0 0.0
2017-Sep-20 16:29N 53°35' E 008°32'0 0.0
2017-Sep-20 15:59N 53°35' E 008°32'0 0.0
2017-Sep-20 15:29N 53°35' E 008°32'0 0.0
2017-Sep-20 14:59N 53°35' E 008°32'0 0.0
2017-Sep-20 13:59N 53°35' E 008°32'0 1.0
2017-Sep-20 13:31N 53°35' E 008°31'510.6
2017-Sep-20 13:00N 53°39' E 008°25'611.9
2017-Sep-20 12:30N 53°43' E 008°18'4 8.1
2017-Sep-20 12:00N 53°40' E 008°23'4 7.5
2017-Sep-20 11:30N 53°38' E 008°27'3 5.7
2017-Sep-20 11:00N 53°36' E 008°31'0 0.2
2017-Sep-20 10:30N 53°36' E 008°31'0 0.0
2017-Sep-20 10:00N 53°36' E 008°31'0 0.0
2017-Sep-20 09:30N 53°36' E 008°31'0 0.0
2017-Sep-20 09:00N 53°36' E 008°31'0 0.0
2017-Sep-20 08:30N 53°36' E 008°31'0 0.0
2017-Sep-20 08:00N 53°36' E 008°31'0 0.0
2017-Sep-20 07:30N 53°36' E 008°31'0 0.0
2017-Sep-20 07:00N 53°36' E 008°31'0 0.0
2017-Sep-20 06:30N 53°36' E 008°31'0 0.0
2017-Sep-20 06:00N 53°36' E 008°31'0 0.0
2017-Sep-20 05:30N 53°36' E 008°31'0 0.0
2017-Sep-20 04:59N 53°36' E 008°31'0 0.0
2017-Sep-20 04:29N 53°36' E 008°31'0 0.0
2017-Sep-20 03:59N 53°36' E 008°31'1 2.1
2017-Sep-20 03:30N 53°37' E 008°30'4 8.9
2017-Sep-20 03:00N 53°39' E 008°24'612.1
2017-Sep-20 02:30N 53°43' E 008°16'611.9
2017-Sep-20 02:00N 53°47' E 008°09'612.3
2017-Sep-20 01:30N 53°51' E 008°00'5 9.2
2017-Sep-20 01:00N 53°53' E 007°53'713.4
2017-Sep-20 00:30N 53°58' E 007°60'612.4
2017-Sep-20 00:00N 54°00' E 008°09'510.4
2017-Sep-19 23:30N 54°00' E 008°18'713.2
2017-Sep-19 23:00N 53°59' E 008°29'612.0
2017-Sep-19 22:30N 53°57' E 008°39'611.5
2017-Sep-19 22:00N 53°52' E 008°44'510.6
2017-Sep-19 21:30N 53°51' E 008°53'611.7
2017-Sep-19 21:00N 53°52' E 009°02'611.3
2017-Sep-19 20:30N 53°53' E 009°12'713.6
2017-Sep-19 20:01N 53°49' E 009°22'815.2
2017-Sep-19 19:31N 53°43' E 009°29'713.6
2017-Sep-19 19:01N 53°37' E 009°34'713.4
2017-Sep-19 18:30N 53°34' E 009°44'510.9
2017-Sep-19 18:00N 53°33' E 009°53'3 5.8
2017-Sep-19 17:29N 53°30' E 009°56'0 0.0
2017-Sep-19 16:59N 53°30' E 009°56'0 0.0
2017-Sep-19 16:26N 53°30' E 009°56'0 0.0
2017-Sep-19 15:59N 53°30' E 009°56'0 0.0
2017-Sep-19 15:29N 53°30' E 009°56'0 0.0
2017-Sep-19 14:59N 53°30' E 009°56'0 0.0
2017-Sep-19 14:26N 53°30' E 009°56'0 0.0
2017-Sep-19 13:59N 53°30' E 009°56'0 0.0
2017-Sep-19 13:29N 53°30' E 009°56'0 0.0
2017-Sep-19 12:59N 53°30' E 009°56'0 0.0
2017-Sep-19 12:29N 53°30' E 009°56'0 0.0
2017-Sep-19 11:59N 53°30' E 009°56'0 0.0
2017-Sep-19 11:29N 53°30' E 009°56'0 0.0
2017-Sep-19 10:59N 53°30' E 009°56'0 0.0
2017-Sep-19 10:29N 53°30' E 009°56'0 0.0
2017-Sep-19 09:59N 53°30' E 009°56'0 0.0
2017-Sep-19 09:29N 53°30' E 009°56'0 0.0
2017-Sep-19 08:59N 53°30' E 009°56'0 0.0
2017-Sep-19 08:29N 53°30' E 009°56'0 0.0
2017-Sep-19 07:59N 53°30' E 009°56'0 0.0
2017-Sep-19 07:29N 53°30' E 009°56'0 0.0
2017-Sep-19 06:59N 53°30' E 009°56'0 0.0
2017-Sep-19 06:29N 53°30' E 009°56'0 0.0
2017-Sep-19 05:59N 53°30' E 009°56'0 0.0
2017-Sep-19 05:29N 53°30' E 009°56'0 0.0
2017-Sep-19 04:59N 53°30' E 009°56'0 0.3
2017-Sep-19 04:30N 53°31' E 009°56'2 4.0
2017-Sep-19 04:00N 53°32' E 009°55'0 0.0
2017-Sep-19 03:27N 53°32' E 009°55'0 0.0
2017-Sep-19 03:00N 53°32' E 009°55'0 0.0
2017-Sep-19 02:30N 53°32' E 009°55'0 0.0
2017-Sep-19 02:00N 53°32' E 009°55'0 0.0
2017-Sep-19 01:30N 53°32' E 009°55'0 0.0
2017-Sep-19 01:00N 53°32' E 009°55'0 0.0
2017-Sep-19 00:30N 53°32' E 009°55'0 0.0
2017-Sep-19 00:00N 53°32' E 009°55'0 0.0
2017-Sep-18 23:30N 53°32' E 009°55'0 0.0
2017-Sep-18 23:00N 53°32' E 009°55'0 0.0
2017-Sep-18 22:30N 53°32' E 009°55'0 0.0
2017-Sep-18 22:00N 53°32' E 009°55'0 0.0
2017-Sep-18 21:30N 53°32' E 009°55'0 0.7
2017-Sep-18 21:00N 53°32' E 009°54'1 1.4
2017-Sep-18 20:31N 53°32' E 009°55'0 0.0
2017-Sep-18 20:01N 53°32' E 009°55'0 0.0
2017-Sep-18 19:31N 53°32' E 009°55'0 0.0
2017-Sep-18 19:01N 53°32' E 009°55'0 0.0
2017-Sep-18 18:31N 53°32' E 009°55'0 0.0
2017-Sep-18 18:01N 53°32' E 009°55'0 0.7
2017-Sep-18 17:31N 53°32' E 009°55'1 3.0
2017-Sep-18 17:01N 53°33' E 009°52'4 8.1
2017-Sep-18 16:31N 53°34' E 009°46'5 9.3
2017-Sep-18 16:00N 53°35' E 009°38'611.1
2017-Sep-18 15:30N 53°38' E 009°31'510.6
2017-Sep-18 15:00N 53°43' E 009°28'612.8
2017-Sep-18 14:30N 53°49' E 009°22'612.9
2017-Sep-18 14:01N 53°53' E 009°14'3 6.0
2017-Sep-18 13:30N 53°54' E 009°09'0 0.1
2017-Sep-18 13:00N 53°54' E 009°09'1 1.1
2017-Sep-18 12:30N 53°54' E 009°10'0 0.6
2017-Sep-18 12:01N 53°54' E 009°10'1 2.8
2017-Sep-18 11:30N 53°55' E 009°12'4 7.7
2017-Sep-18 11:00N 53°58' E 009°16'4 7.4
2017-Sep-18 10:31N 54°02' E 009°18'4 7.9
2017-Sep-18 10:01N 54°06' E 009°20'11 5.7
2017-Sep-18 08:08N 54°12' E 009°34'32 5.8
2017-Sep-18 02:35N 54°30' E 010°20'114.1
2017-Sep-18 02:30N 54°31' E 010°21'714.1
2017-Sep-18 02:00N 54°34' E 010°33'714.0
2017-Sep-18 01:31N 54°35' E 010°44'714.4
2017-Sep-18 01:01N 54°36' E 010°57'714.8
2017-Sep-18 00:31N 54°36' E 011°09'815.5
2017-Sep-18 00:01N 54°33' E 011°22'714.7
2017-Sep-17 23:31N 54°30' E 011°33'714.4
2017-Sep-17 23:01N 54°27' E 011°45'714.4
2017-Sep-17 22:31N 54°26' E 011°57'714.4
2017-Sep-17 21:59N 54°27' E 012°10'715.1
2017-Sep-17 21:30N 54°34' E 012°14'1114.7
2017-Sep-17 20:45N 54°41' E 012°30'414.9
2017-Sep-17 20:30N 54°43' E 012°35'814.7
2017-Sep-17 19:59N 54°47' E 012°46'1214.8
2017-Sep-17 19:10N 54°51' E 013°05'414.8
2017-Sep-17 18:56N 54°53' E 013°11'614.8
2017-Sep-17 18:30N 54°55' E 013°21'1914.9
2017-Sep-17 17:14N 55°02' E 013°52'714.9
2017-Sep-17 16:46N 55°05' E 014°03'415.2
2017-Sep-17 16:30N 55°08' E 014°08'1315.4
2017-Sep-17 15:40N 55°18' E 014°21'316.7
2017-Sep-17 15:31N 55°20' E 014°24'816.7
2017-Sep-17 15:01N 55°26' E 014°35'817.0
2017-Sep-17 14:31N 55°31' E 014°47'917.0
2017-Sep-17 14:00N 55°35' E 015°00'817.0
2017-Sep-17 13:31N 55°39' E 015°13'816.9
2017-Sep-17 13:00N 55°43' E 015°27'816.7
2017-Sep-17 12:30N 55°48' E 015°39'816.9
2017-Sep-17 12:01N 55°52' E 015°52'816.9
2017-Sep-17 11:31N 55°56' E 016°05'816.9
2017-Sep-17 11:01N 56°01' E 016°18'816.7
2017-Sep-17 10:31N 56°05' E 016°31'917.0
2017-Sep-17 10:01N 56°10' E 016°44'816.6
2017-Sep-17 09:31N 56°17' E 016°50'  

Dump ship's entire track history